createdAt,value
2022-08-21T00:01:40.783Z,18.78
2022-08-21T00:04:08.855Z,18.73
2022-08-21T00:06:36.504Z,18.72
2022-08-21T00:09:06.833Z,18.67
2022-08-21T00:11:35.983Z,18.61
2022-08-21T00:14:03.492Z,18.60
2022-08-21T00:16:30.188Z,18.56
2022-08-21T00:18:56.861Z,18.53
2022-08-21T00:21:23.482Z,18.50
2022-08-21T00:23:50.103Z,18.47
2022-08-21T00:26:16.639Z,18.47
2022-08-21T00:28:43.792Z,18.43
2022-08-21T00:31:10.360Z,18.40
2022-08-21T00:33:36.927Z,18.36
2022-08-21T00:36:04.142Z,18.31
2022-08-21T00:38:31.170Z,18.26
2022-08-21T00:41:00.336Z,18.19
2022-08-21T00:43:46.944Z,18.11
2022-08-21T00:46:13.820Z,18.07
2022-08-21T00:48:40.542Z,18.01
2022-08-21T00:51:23.399Z,17.98
2022-08-21T00:53:55.517Z,17.95
2022-08-21T00:56:25.072Z,17.90
2022-08-21T00:58:54.970Z,17.85
2022-08-21T01:01:21.830Z,17.80
2022-08-21T01:03:48.554Z,17.77
2022-08-21T01:06:17.215Z,17.73
2022-08-21T01:08:46.974Z,17.71
2022-08-21T01:11:15.661Z,17.64
2022-08-21T01:13:47.133Z,17.61
2022-08-21T01:16:17.913Z,17.58
2022-08-21T01:18:46.322Z,17.55
2022-08-21T01:21:28.374Z,17.52
2022-08-21T01:23:57.684Z,17.49
2022-08-21T01:26:34.184Z,17.44
2022-08-21T01:29:07.007Z,17.42
2022-08-21T01:31:34.277Z,17.38
2022-08-21T01:34:01.639Z,17.37
2022-08-21T01:36:28.655Z,17.35
2022-08-21T01:38:56.013Z,17.32
2022-08-21T01:41:22.901Z,17.29
2022-08-21T01:43:50.067Z,17.26
2022-08-21T01:46:17.213Z,17.22
2022-08-21T01:48:44.384Z,17.22
2022-08-21T01:51:12.858Z,17.20
2022-08-21T01:53:40.337Z,17.16
2022-08-21T01:56:12.614Z,17.13
2022-08-21T01:58:41.202Z,17.07
2022-08-21T02:01:07.888Z,17.02
2022-08-21T02:03:35.663Z,17.00
2022-08-21T02:06:07.999Z,16.98
2022-08-21T02:08:35.304Z,16.95
2022-08-21T02:11:02.215Z,16.95
2022-08-21T02:13:28.938Z,16.94
2022-08-21T02:15:55.518Z,16.92
2022-08-21T02:18:22.127Z,16.90
2022-08-21T02:20:55.638Z,16.86
2022-08-21T02:23:26.591Z,16.83
2022-08-21T02:25:55.759Z,16.81
2022-08-21T02:28:22.795Z,16.80
2022-08-21T02:30:50.127Z,16.77
2022-08-21T02:33:17.377Z,16.77
2022-08-21T02:35:47.605Z,16.73
2022-08-21T02:38:20.269Z,16.70
2022-08-21T02:40:50.894Z,16.69
2022-08-21T02:43:19.239Z,16.65
2022-08-21T02:45:47.323Z,16.62
2022-08-21T02:48:17.344Z,16.62
2022-08-21T02:51:02.843Z,16.56
2022-08-21T02:53:30.713Z,16.52
2022-08-21T02:55:59.956Z,16.50
2022-08-21T02:58:33.524Z,16.46
2022-08-21T03:01:00.758Z,16.45
2022-08-21T03:03:28.649Z,16.45
2022-08-21T03:05:56.134Z,16.44
2022-08-21T03:08:24.273Z,16.46
2022-08-21T03:10:54.499Z,16.44
2022-08-21T03:13:24.718Z,16.46
2022-08-21T03:15:51.689Z,16.45
2022-08-21T03:18:19.051Z,16.42
2022-08-21T03:20:46.276Z,16.38
2022-08-21T03:23:16.713Z,16.38
2022-08-21T03:25:43.984Z,16.36
2022-08-21T03:28:14.105Z,16.34
2022-08-21T03:30:46.277Z,16.31
2022-08-21T03:33:15.485Z,16.28
2022-08-21T03:35:44.726Z,16.24
2022-08-21T03:38:13.844Z,16.21
2022-08-21T03:40:41.488Z,16.17
2022-08-21T03:43:10.052Z,16.13
2022-08-21T03:45:37.139Z,16.11
2022-08-21T03:48:06.630Z,16.07
2022-08-21T03:50:40.944Z,16.05
2022-08-21T03:53:17.552Z,16.00
2022-08-21T03:55:49.828Z,15.93
2022-08-21T03:58:18.246Z,15.89
2022-08-21T04:00:50.533Z,15.87
2022-08-21T04:03:18.021Z,15.87
2022-08-21T04:05:46.588Z,15.85
2022-08-21T04:08:14.821Z,15.86
2022-08-21T04:10:47.340Z,15.86
2022-08-21T04:13:15.604Z,15.86
2022-08-21T04:15:42.796Z,15.84
2022-08-21T04:18:11.019Z,15.84
2022-08-21T04:20:38.212Z,15.82
2022-08-21T04:23:04.880Z,15.80
2022-08-21T04:25:31.498Z,15.78
2022-08-21T04:27:58.270Z,15.79
2022-08-21T04:30:28.641Z,15.76
2022-08-21T04:32:57.106Z,15.75
2022-08-21T04:35:25.745Z,15.73
2022-08-21T04:37:52.399Z,15.72
2022-08-21T04:40:20.950Z,15.70
2022-08-21T04:42:50.868Z,15.69
2022-08-21T04:45:23.128Z,15.70
2022-08-21T04:47:56.695Z,15.69
2022-08-21T04:50:30.260Z,15.71
2022-08-21T04:52:57.544Z,15.71
2022-08-21T04:55:27.413Z,15.73
2022-08-21T04:57:54.651Z,15.75
2022-08-21T05:00:23.265Z,15.80
2022-08-21T05:02:51.049Z,16.20
2022-08-21T05:05:17.821Z,17.10
2022-08-21T05:07:46.140Z,17.75
2022-08-21T05:10:14.913Z,18.19
2022-08-21T05:12:43.912Z,18.55
2022-08-21T05:15:13.623Z,18.83
2022-08-21T05:17:41.850Z,19.03
2022-08-21T05:20:10.503Z,19.21
2022-08-21T05:22:37.059Z,19.27
2022-08-21T05:25:10.255Z,19.41
2022-08-21T05:27:37.700Z,19.55
2022-08-21T05:30:08.708Z,19.69
2022-08-21T05:32:36.546Z,19.73
2022-08-21T05:35:06.415Z,19.89
2022-08-21T05:37:33.310Z,19.99
2022-08-21T05:40:21.752Z,20.19
2022-08-21T05:42:55.011Z,20.37
2022-08-21T05:45:42.782Z,20.56
2022-08-21T05:48:19.656Z,20.72
2022-08-21T05:50:48.581Z,20.74
2022-08-21T05:53:16.821Z,20.82
2022-08-21T05:55:46.112Z,20.91
2022-08-21T05:58:18.530Z,20.93
2022-08-21T06:00:48.261Z,20.90
2022-08-21T06:03:18.669Z,20.90
2022-08-21T06:05:46.657Z,20.92
2022-08-21T06:08:13.754Z,21.03
2022-08-21T06:10:40.414Z,21.14
2022-08-21T06:13:07.018Z,21.27
2022-08-21T06:15:33.789Z,21.38
2022-08-21T06:18:00.490Z,21.48
2022-08-21T06:20:27.278Z,21.59
2022-08-21T06:22:53.859Z,21.70
2022-08-21T06:25:21.045Z,21.80
2022-08-21T06:27:48.011Z,21.91
2022-08-21T06:30:15.024Z,21.95
2022-08-21T06:32:41.737Z,21.97
2022-08-21T06:35:08.931Z,22.03
2022-08-21T06:37:35.575Z,22.03
2022-08-21T06:40:04.335Z,22.07
2022-08-21T06:42:30.948Z,22.06
2022-08-21T06:44:58.502Z,22.09
2022-08-21T06:47:25.110Z,22.09
2022-08-21T06:49:51.692Z,22.11
2022-08-21T06:52:18.392Z,22.05
2022-08-21T06:54:45.067Z,21.85
2022-08-21T06:57:11.780Z,21.77
2022-08-21T06:59:38.487Z,21.64
2022-08-21T07:02:05.151Z,21.51
2022-08-21T07:04:31.678Z,21.44
2022-08-21T07:06:58.253Z,21.57
2022-08-21T07:09:25.114Z,21.59
2022-08-21T07:11:54.676Z,21.69
2022-08-21T07:14:21.539Z,21.74
2022-08-21T07:16:49.421Z,21.69
2022-08-21T07:19:16.007Z,21.86
2022-08-21T07:21:42.718Z,22.16
2022-08-21T07:24:09.846Z,22.28
2022-08-21T07:26:36.980Z,22.36
2022-08-21T07:29:04.897Z,22.35
2022-08-21T07:31:31.671Z,22.20
2022-08-21T07:33:58.578Z,22.00
2022-08-21T07:36:25.744Z,22.23
2022-08-21T07:38:52.438Z,22.38
2022-08-21T07:41:29.552Z,22.46
2022-08-21T07:43:59.922Z,22.55
2022-08-21T07:46:26.910Z,22.43
2022-08-21T07:48:54.180Z,22.33
2022-08-21T07:51:24.815Z,22.54
2022-08-21T07:53:53.887Z,22.88
2022-08-21T07:56:21.086Z,23.15
2022-08-21T07:58:48.146Z,23.39
2022-08-21T08:01:15.093Z,23.66
2022-08-21T08:03:42.053Z,23.70
2022-08-21T08:06:13.094Z,23.63
2022-08-21T08:08:41.706Z,23.70
2022-08-21T08:11:11.854Z,23.83
2022-08-21T08:13:47.220Z,23.95
2022-08-21T08:16:14.444Z,23.95
2022-08-21T08:18:42.678Z,23.96
2022-08-21T08:21:10.648Z,23.98
2022-08-21T08:23:37.265Z,24.07
2022-08-21T08:26:04.153Z,24.06
2022-08-21T08:28:32.756Z,24.10
2022-08-21T08:31:01.247Z,24.04
2022-08-21T08:33:28.555Z,24.07
2022-08-21T08:35:55.800Z,24.14
2022-08-21T08:38:25.270Z,24.13
2022-08-21T08:41:20.650Z,24.15
2022-08-21T08:43:54.022Z,24.13
2022-08-21T08:46:34.579Z,24.18
2022-08-21T08:49:07.588Z,24.29
2022-08-21T08:51:40.975Z,24.42
2022-08-21T08:54:12.506Z,24.68
2022-08-21T08:56:39.533Z,24.89
2022-08-21T08:59:28.452Z,24.95
2022-08-21T09:01:55.399Z,25.07
2022-08-21T09:04:29.719Z,25.32
2022-08-21T09:07:13.888Z,25.47
2022-08-21T09:10:04.467Z,25.62
2022-08-21T09:12:49.384Z,25.71
2022-08-21T09:15:55.039Z,25.75
2022-08-21T09:18:39.787Z,25.87
2022-08-21T09:21:29.385Z,26.07
2022-08-21T09:24:01.855Z,26.22
2022-08-21T09:26:37.195Z,26.28
2022-08-21T09:29:04.461Z,26.35
2022-08-21T09:31:39.061Z,26.61
2022-08-21T09:34:10.092Z,26.93
2022-08-21T09:36:43.139Z,27.19
2022-08-21T09:39:12.176Z,27.40
2022-08-21T09:41:40.130Z,27.57
2022-08-21T09:44:08.998Z,27.66
2022-08-21T09:46:36.635Z,27.77
2022-08-21T09:49:06.804Z,27.71
2022-08-21T09:51:54.042Z,27.34
2022-08-21T09:54:26.604Z,27.17
2022-08-21T09:57:18.560Z,27.05
2022-08-21T09:59:46.253Z,26.89
2022-08-21T10:02:32.212Z,26.91
2022-08-21T10:05:05.057Z,27.02
2022-08-21T10:07:33.487Z,27.20
2022-08-21T10:10:04.464Z,27.29
2022-08-21T10:13:05.032Z,27.36
2022-08-21T10:15:40.709Z,27.40
2022-08-21T10:18:43.493Z,27.43
2022-08-21T10:21:23.528Z,27.57
2022-08-21T10:24:12.094Z,27.58
2022-08-21T10:27:37.335Z,27.57
2022-08-21T10:30:13.483Z,27.72
2022-08-21T10:33:17.548Z,27.80
2022-08-21T10:35:56.891Z,27.79
2022-08-21T10:38:55.225Z,27.86
2022-08-21T10:42:02.769Z,28.05
2022-08-21T10:45:06.846Z,28.25
2022-08-21T10:47:43.403Z,28.19
2022-08-21T10:50:24.687Z,28.31
2022-08-21T10:53:19.376Z,28.43
2022-08-21T10:55:55.936Z,28.36
2022-08-21T10:58:29.557Z,28.15
2022-08-21T11:01:06.437Z,27.92
2022-08-21T11:03:42.552Z,27.89
2022-08-21T11:06:24.907Z,28.06
2022-08-21T11:09:00.596Z,28.08
2022-08-21T11:11:46.585Z,27.96
2022-08-21T11:14:49.802Z,27.97
2022-08-21T11:17:23.256Z,28.04
2022-08-21T11:19:55.956Z,27.97
2022-08-21T11:22:32.969Z,28.02
2022-08-21T11:25:14.687Z,28.16
2022-08-21T11:28:02.179Z,28.24
2022-08-21T11:30:40.459Z,28.53
2022-08-21T11:33:26.117Z,28.74
2022-08-21T11:36:05.163Z,28.91
2022-08-21T11:38:41.358Z,28.69
2022-08-21T11:41:10.902Z,28.84
2022-08-21T11:43:43.849Z,29.14
2022-08-21T11:46:21.357Z,29.37
2022-08-21T11:49:06.505Z,29.35
2022-08-21T11:51:53.840Z,29.23
2022-08-21T11:54:26.190Z,29.17
2022-08-21T11:57:02.392Z,29.10
2022-08-21T11:59:44.178Z,29.00
2022-08-21T12:02:14.686Z,28.96
2022-08-21T12:04:52.588Z,29.21
2022-08-21T12:07:36.251Z,29.43
2022-08-21T12:10:07.037Z,29.70
2022-08-21T12:12:36.975Z,29.87
2022-08-21T12:15:21.328Z,29.97
2022-08-21T12:18:17.479Z,30.07
2022-08-21T12:20:57.960Z,30.04
2022-08-21T12:24:07.979Z,29.94
2022-08-21T12:26:51.689Z,29.99
2022-08-21T12:29:26.459Z,29.99
2022-08-21T12:31:58.568Z,29.77
2022-08-21T12:34:33.389Z,29.56
2022-08-21T12:37:05.373Z,29.61
2022-08-21T12:39:34.599Z,29.64
2022-08-21T12:42:25.972Z,29.50
2022-08-21T12:45:01.278Z,29.32
2022-08-21T12:47:49.377Z,29.19
2022-08-21T12:50:33.767Z,29.23
2022-08-21T12:53:21.159Z,29.62
2022-08-21T12:55:48.015Z,30.02
2022-08-21T12:58:23.718Z,30.31
2022-08-21T13:01:38.197Z,30.41
2022-08-21T13:04:12.336Z,30.25
2022-08-21T13:06:46.503Z,30.18
2022-08-21T13:09:16.460Z,30.44
2022-08-21T13:11:46.507Z,30.69
2022-08-21T13:14:20.884Z,30.68
2022-08-21T13:16:48.545Z,30.53
2022-08-21T13:19:23.900Z,30.36
2022-08-21T13:21:53.690Z,30.27
2022-08-21T13:24:41.893Z,30.38
2022-08-21T13:27:29.113Z,30.65
2022-08-21T13:30:09.312Z,31.12
2022-08-21T13:32:38.857Z,31.37
2022-08-21T13:35:16.036Z,31.51
2022-08-21T13:37:45.089Z,31.56
2022-08-21T13:40:16.977Z,31.76
2022-08-21T13:42:46.250Z,31.93
2022-08-21T13:45:23.239Z,31.90
2022-08-21T13:47:50.022Z,32.03
2022-08-21T13:50:19.257Z,32.02
2022-08-21T13:53:08.165Z,32.02
2022-08-21T13:55:43.417Z,31.88
2022-08-21T13:58:12.023Z,31.76
2022-08-21T14:00:49.723Z,31.87
2022-08-21T14:03:31.304Z,31.87
2022-08-21T14:06:00.410Z,32.20
2022-08-21T14:08:41.059Z,32.95
2022-08-21T14:11:12.633Z,33.33
2022-08-21T14:13:49.503Z,33.66
2022-08-21T14:16:22.349Z,34.17
2022-08-21T14:18:53.393Z,34.47
2022-08-21T14:21:32.091Z,34.14
2022-08-21T14:24:10.036Z,34.08
2022-08-21T14:26:53.444Z,33.86
2022-08-21T14:29:23.630Z,33.69
2022-08-21T14:31:52.491Z,33.38
2022-08-21T14:34:19.931Z,33.29
2022-08-21T14:36:47.929Z,33.41
2022-08-21T14:39:14.573Z,33.45
2022-08-21T14:41:43.484Z,33.60
2022-08-21T14:44:10.608Z,33.97
2022-08-21T14:46:51.649Z,34.15
2022-08-21T14:49:28.896Z,34.25
2022-08-21T14:51:59.429Z,34.63
2022-08-21T14:54:31.018Z,34.66
2022-08-21T14:57:03.450Z,35.10
2022-08-21T14:59:31.186Z,35.75
2022-08-21T15:01:57.825Z,35.87
2022-08-21T15:04:25.051Z,35.89
2022-08-21T15:06:51.788Z,35.51
2022-08-21T15:09:18.415Z,35.60
2022-08-21T15:11:45.503Z,35.01
2022-08-21T15:14:20.006Z,34.33
2022-08-21T15:16:47.172Z,34.50
2022-08-21T15:19:13.950Z,34.49
2022-08-21T15:21:40.646Z,33.83
2022-08-21T15:24:07.383Z,33.21
2022-08-21T15:26:35.168Z,32.57
2022-08-21T15:29:02.681Z,31.84
2022-08-21T15:31:33.970Z,31.23
2022-08-21T15:34:00.579Z,30.88
2022-08-21T15:36:27.222Z,30.64
2022-08-21T15:38:53.796Z,30.40
2022-08-21T15:41:20.414Z,30.21
2022-08-21T15:43:50.439Z,30.06
2022-08-21T15:46:19.360Z,30.01
2022-08-21T15:48:47.226Z,29.90
2022-08-21T15:51:16.323Z,29.84
2022-08-21T15:53:43.059Z,29.67
2022-08-21T15:56:37.625Z,29.52
2022-08-21T15:59:08.782Z,29.46
2022-08-21T16:01:44.814Z,29.53
2022-08-21T16:04:16.553Z,29.56
2022-08-21T16:06:53.331Z,29.46
2022-08-21T16:09:22.782Z,29.33
2022-08-21T16:11:49.808Z,29.26
2022-08-21T16:14:17.891Z,29.14
2022-08-21T16:16:44.993Z,29.07
2022-08-21T16:19:13.508Z,29.00
2022-08-21T16:21:40.302Z,28.91
2022-08-21T16:24:07.259Z,28.76
2022-08-21T16:26:34.238Z,28.76
2022-08-21T16:29:01.638Z,28.73
2022-08-21T16:31:28.344Z,28.69
2022-08-21T16:33:57.914Z,28.68
2022-08-21T16:36:28.498Z,28.71
2022-08-21T16:38:56.183Z,28.84
2022-08-21T16:41:24.495Z,29.02
2022-08-21T16:43:52.407Z,29.16
2022-08-21T16:46:20.721Z,29.16
2022-08-21T16:48:50.227Z,29.06
2022-08-21T16:51:17.510Z,28.96
2022-08-21T16:53:44.187Z,28.91
2022-08-21T16:56:13.888Z,28.91
2022-08-21T16:58:44.554Z,28.90
2022-08-21T17:01:15.220Z,28.82
2022-08-21T17:03:45.846Z,28.77
2022-08-21T17:06:14.093Z,28.65
2022-08-21T17:08:40.676Z,28.51
2022-08-21T17:11:12.246Z,28.41
2022-08-21T17:13:58.501Z,28.20
2022-08-21T17:16:25.864Z,28.05
2022-08-21T17:18:54.652Z,27.89
2022-08-21T17:21:22.172Z,27.78
2022-08-21T17:23:49.237Z,27.67
2022-08-21T17:26:16.796Z,27.58
2022-08-21T17:28:45.371Z,27.48
2022-08-21T17:31:12.902Z,27.41
2022-08-21T17:33:50.478Z,27.35
2022-08-21T17:36:21.912Z,27.27
2022-08-21T17:38:48.581Z,27.18
2022-08-21T17:41:16.184Z,27.14
2022-08-21T17:43:43.404Z,27.04
2022-08-21T17:46:14.994Z,26.94
2022-08-21T17:48:41.619Z,26.85
2022-08-21T17:51:14.526Z,26.78
2022-08-21T17:53:41.871Z,26.72
2022-08-21T17:56:08.928Z,26.70
2022-08-21T17:58:36.317Z,26.67
2022-08-21T18:01:05.746Z,26.62
2022-08-21T18:03:37.282Z,26.57
2022-08-21T18:06:05.747Z,26.50
2022-08-21T18:08:32.765Z,26.44
2022-08-21T18:11:00.359Z,26.34
2022-08-21T18:13:32.654Z,26.22
2022-08-21T18:16:00.334Z,26.10
2022-08-21T18:18:30.166Z,25.96
2022-08-21T18:20:57.772Z,25.87
2022-08-21T18:23:43.239Z,25.79
2022-08-21T18:26:11.108Z,25.75
2022-08-21T18:28:38.578Z,25.71
2022-08-21T18:31:08.640Z,25.65
2022-08-21T18:33:35.745Z,25.60
2022-08-21T18:36:04.466Z,25.55
2022-08-21T18:38:31.409Z,25.52
2022-08-21T18:40:59.743Z,25.49
2022-08-21T18:43:27.037Z,25.45
2022-08-21T18:45:54.008Z,25.39
2022-08-21T18:48:20.668Z,25.35
2022-08-21T18:50:47.951Z,25.30
2022-08-21T18:53:24.280Z,25.27
2022-08-21T18:55:57.092Z,25.22
2022-08-21T18:58:25.584Z,25.19
2022-08-21T19:00:54.381Z,25.13
2022-08-21T19:03:23.796Z,25.09
2022-08-21T19:05:52.712Z,25.09
2022-08-21T19:08:22.119Z,25.06
2022-08-21T19:10:51.221Z,25.01
2022-08-21T19:13:20.712Z,24.98
2022-08-21T19:15:55.484Z,24.96
2022-08-21T19:18:28.411Z,24.92
2022-08-21T19:20:55.972Z,24.87
2022-08-21T19:23:29.051Z,24.81
2022-08-21T19:26:00.502Z,24.80
2022-08-21T19:28:35.523Z,24.77
2022-08-21T19:31:10.263Z,24.74
2022-08-21T19:33:40.976Z,24.70
2022-08-21T19:36:11.827Z,24.67
2022-08-21T19:38:39.031Z,24.62
2022-08-21T19:41:09.412Z,24.59
2022-08-21T19:43:42.204Z,24.58
2022-08-21T19:46:09.126Z,24.56
2022-08-21T19:48:37.223Z,24.54
2022-08-21T19:51:04.922Z,24.50
2022-08-21T19:53:31.535Z,24.45
2022-08-21T19:55:58.155Z,24.42
2022-08-21T19:58:38.880Z,24.37
2022-08-21T20:03:57.198Z,24.24
2022-08-21T20:06:25.494Z,24.20
2022-08-21T20:08:54.745Z,24.16
2022-08-21T20:11:42.484Z,24.08
2022-08-21T20:14:12.333Z,24.03
2022-08-21T20:16:41.538Z,23.97
2022-08-21T20:19:08.674Z,23.93
2022-08-21T20:21:43.733Z,23.89
2022-08-21T20:24:15.392Z,23.85
2022-08-21T20:26:48.638Z,23.80
2022-08-21T20:29:16.803Z,23.74
2022-08-21T20:31:50.554Z,23.72
2022-08-21T20:34:17.556Z,23.69
2022-08-21T20:36:44.818Z,23.66
2022-08-21T20:39:14.543Z,23.64
2022-08-21T20:41:41.812Z,23.63
2022-08-21T20:44:12.679Z,23.64
2022-08-21T20:46:39.848Z,23.62
2022-08-21T20:49:09.354Z,23.62
2022-08-21T20:51:40.873Z,23.63
2022-08-21T20:54:27.370Z,23.60
2022-08-21T20:57:03.868Z,23.61
2022-08-21T20:59:33.168Z,23.61
2022-08-21T21:02:25.209Z,23.60
2022-08-21T21:05:15.507Z,23.56
2022-08-21T21:08:05.864Z,23.49
2022-08-21T21:10:55.639Z,23.42
2022-08-21T21:13:25.203Z,23.39
2022-08-21T21:15:56.560Z,23.36
2022-08-21T21:18:40.761Z,23.33
2022-08-21T21:21:10.913Z,23.33
2022-08-21T21:23:46.305Z,23.31
2022-08-21T21:26:29.342Z,23.30
2022-08-21T21:29:13.249Z,23.30
2022-08-21T21:31:41.571Z,23.30
2022-08-21T21:34:08.919Z,23.28
2022-08-21T21:37:00.841Z,23.25
2022-08-21T21:39:36.467Z,23.26
2022-08-21T21:42:29.989Z,23.21
2022-08-21T21:44:57.167Z,23.18
2022-08-21T21:47:38.804Z,23.15
2022-08-21T21:50:20.963Z,23.11
2022-08-21T21:52:55.310Z,23.08
2022-08-21T21:55:28.228Z,23.05
2022-08-21T22:01:15.368Z,22.98
2022-08-21T22:04:00.343Z,22.94
2022-08-21T22:06:42.239Z,22.90
2022-08-21T22:09:15.338Z,22.89
2022-08-21T22:12:09.717Z,22.88
2022-08-21T22:14:41.144Z,22.89
2022-08-21T22:17:30.498Z,22.85
2022-08-21T22:19:58.587Z,22.87
2022-08-21T22:22:29.504Z,22.84
2022-08-21T22:27:41.460Z,22.84
2022-08-21T22:30:14.673Z,22.83
2022-08-21T22:32:50.446Z,22.83
2022-08-21T22:35:23.678Z,22.83
2022-08-21T22:40:47.085Z,22.78
2022-08-21T22:43:20.727Z,22.77
2022-08-21T22:46:00.694Z,22.76
2022-08-21T22:48:36.120Z,22.74
2022-08-21T22:51:05.819Z,22.70
2022-08-21T22:53:36.389Z,22.68
2022-08-21T22:56:05.830Z,22.69
2022-08-21T22:58:37.061Z,22.71
2022-08-21T23:01:21.768Z,22.73
2022-08-21T23:03:52.585Z,22.69
2022-08-21T23:06:25.747Z,22.66
2022-08-21T23:08:53.510Z,22.68
2022-08-21T23:11:26.309Z,22.64
2022-08-21T23:13:55.512Z,22.61
2022-08-21T23:16:53.139Z,22.56
2022-08-21T23:19:47.995Z,22.53
2022-08-21T23:22:49.992Z,22.46
2022-08-21T23:25:42.376Z,22.44
2022-08-21T23:28:31.536Z,22.42
2022-08-21T23:31:01.247Z,22.40
2022-08-21T23:33:45.059Z,22.35
2022-08-21T23:37:01.820Z,22.28
2022-08-21T23:39:51.486Z,22.23
2022-08-21T23:42:45.724Z,22.21
2022-08-21T23:45:57.216Z,22.19
2022-08-21T23:49:00.658Z,22.13
2022-08-21T23:51:38.639Z,22.09
2022-08-21T23:54:27.066Z,22.08
2022-08-21T23:56:59.272Z,22.07
2022-08-21T23:59:40.975Z,22.07
